Time;durP1;ratioP1;P1;durP2;ratioP2;P2;SDS_P1;SDS_P2;PMS_P1;PMS_P2;Temp;Humidity;BMP_temperature;BMP_pressure;BME280_temperature;BME280_humidity;BME280_pressure;Samples;Min_cycle;Max_cycle;Signal;HPM_P1;HPM_P2
2020/12/14 00:00:06;;;;;;;19.20;9.48;;;;;;;;;;10249691;28;20037;-55
2020/12/14 00:05:04;;;;;;;25.65;10.40;;;;;;;;;;10284148;28;20537;-54
2020/12/14 00:10:03;;;;;;;19.25;8.77;;;;;;;;;;10292340;28;20427;-57
2020/12/14 00:15:00;;;;;;;21.85;8.85;;;;;;;;;;10276271;28;20106;-56
2020/12/14 00:19:57;;;;;;;26.40;10.20;;;;;;;;;;10290865;28;20087;-60
2020/12/14 00:24:55;;;;;;;18.53;8.83;;;;;;;;;;10269613;28;20041;-55
2020/12/14 00:29:53;;;;;;;23.23;9.00;;;;;;;;;;10283895;28;20030;-55
2020/12/14 00:34:50;;;;;;;23.70;9.27;;;;;;;;;;10270567;28;20037;-53
2020/12/14 00:39:47;;;;;;;19.97;9.77;;;;;;;;;;10276244;28;20037;-56
2020/12/14 00:44:45;;;;;;;16.83;8.83;;;;;;;;;;10280679;28;20065;-61
2020/12/14 00:49:43;;;;;;;17.00;7.90;;;;;;;;;;10276440;28;20495;-59
2020/12/14 00:54:40;;;;;;;25.33;10.05;;;;;;;;;;10276239;28;20528;-56
2020/12/14 00:59:38;;;;;;;15.77;7.63;;;;;;;;;;10272877;28;20037;-59
2020/12/14 01:04:35;;;;;;;17.33;7.67;;;;;;;;;;10270276;28;20046;-58
2020/12/14 01:09:32;;;;;;;14.07;7.03;;;;;;;;;;10269667;28;20120;-58
2020/12/14 01:14:30;;;;;;;17.33;8.03;;;;;;;;;;10280877;28;20044;-61
2020/12/14 01:19:27;;;;;;;14.03;7.00;;;;;;;;;;10276216;28;20814;-60
2020/12/14 01:24:25;;;;;;;18.43;8.27;;;;;;;;;;10262076;28;20143;-56
2020/12/14 01:29:23;;;;;;;13.25;7.05;;;;;;;;;;10273851;28;20048;-60
2020/12/14 01:34:20;;;;;;;21.63;7.90;;;;;;;;;;10277450;28;20424;-56
2020/12/14 01:39:18;;;;;;;13.43;7.23;;;;;;;;;;10258630;28;20057;-64
2020/12/14 01:44:15;;;;;;;14.97;7.33;;;;;;;;;;10277962;28;20045;-55
2020/12/14 01:49:12;;;;;;;18.70;7.60;;;;;;;;;;10269467;28;20030;-58
2020/12/14 01:54:21;;;;;;;18.60;8.03;;;;;;;;;;10252853;28;20616;-56
2020/12/14 01:59:18;;;;;;;18.83;7.97;;;;;;;;;;10280495;28;20112;-57
2020/12/14 02:04:16;;;;;;;15.10;7.40;;;;;;;;;;10260369;28;20045;-62
2020/12/14 02:09:13;;;;;;;17.60;7.50;;;;;;;;;;10269894;28;20048;-60
2020/12/14 02:14:11;;;;;;;17.50;7.53;;;;;;;;;;10279897;28;20037;-62
2020/12/14 02:19:08;;;;;;;17.77;6.43;;;;;;;;;;10266794;28;20405;-63
2020/12/14 02:24:15;;;;;;;17.77;7.17;;;;;;;;;;10285206;28;20040;-55
2020/12/14 02:29:13;;;;;;;21.55;5.97;;;;;;;;;;10272053;28;20041;-61
2020/12/14 02:34:10;;;;;;;15.47;6.27;;;;;;;;;;10273086;28;20037;-53
2020/12/14 02:39:07;;;;;;;17.13;7.03;;;;;;;;;;10268935;28;20043;-56
2020/12/14 02:44:05;;;;;;;13.83;6.63;;;;;;;;;;10290350;28;20041;-56
2020/12/14 02:49:02;;;;;;;15.27;7.13;;;;;;;;;;10257857;28;20037;-55
2020/12/14 02:54:00;;;;;;;14.20;5.97;;;;;;;;;;10270897;28;20083;-59
2020/12/14 02:58:57;;;;;;;15.17;6.97;;;;;;;;;;10287244;28;20037;-58
2020/12/14 03:03:55;;;;;;;8.47;4.97;;;;;;;;;;10277437;28;20058;-56
2020/12/14 03:08:52;;;;;;;12.40;5.67;;;;;;;;;;10281593;28;20059;-51
2020/12/14 03:13:49;;;;;;;10.43;4.90;;;;;;;;;;10269088;28;20442;-57
2020/12/14 03:18:47;;;;;;;13.07;6.00;;;;;;;;;;10265056;28;20721;-58
2020/12/14 03:23:44;;;;;;;11.63;5.07;;;;;;;;;;10286898;28;20490;-59
2020/12/14 03:28:42;;;;;;;7.90;4.57;;;;;;;;;;10282157;28;20037;-59
2020/12/14 03:33:39;;;;;;;12.20;5.23;;;;;;;;;;10263256;28;20056;-60
2020/12/14 03:38:37;;;;;;;10.93;5.10;;;;;;;;;;10279500;28;20572;-51
2020/12/14 03:43:34;;;;;;;9.20;4.93;;;;;;;;;;10287729;28;20794;-57
2020/12/14 03:48:32;;;;;;;10.90;5.67;;;;;;;;;;10268577;28;20040;-52
2020/12/14 03:53:29;;;;;;;9.00;4.97;;;;;;;;;;10282591;28;20026;-59
2020/12/14 03:58:26;;;;;;;8.17;4.73;;;;;;;;;;10281766;28;20053;-62
2020/12/14 04:03:25;;;;;;;14.23;5.63;;;;;;;;;;10257912;28;20072;-60
2020/12/14 04:08:22;;;;;;;6.15;4.10;;;;;;;;;;10252015;28;20040;-62
2020/12/14 04:13:20;;;;;;;11.00;4.30;;;;;;;;;;10269807;28;20221;-63
2020/12/14 04:18:18;;;;;;;5.47;3.50;;;;;;;;;;10271328;28;20029;-59
2020/12/14 04:23:15;;;;;;;12.23;4.17;;;;;;;;;;10270283;28;20038;-58
2020/12/14 04:28:12;;;;;;;7.23;3.43;;;;;;;;;;10257604;28;20048;-53
2020/12/14 04:33:10;;;;;;;6.43;3.77;;;;;;;;;;10274143;28;20046;-54
2020/12/14 04:38:07;;;;;;;5.80;3.43;;;;;;;;;;10271744;28;20029;-60
2020/12/14 04:43:07;;;;;;;10.43;4.23;;;;;;;;;;10274884;28;20037;-58
2020/12/14 04:48:04;;;;;;;9.63;4.10;;;;;;;;;;10277624;28;20095;-56
2020/12/14 04:53:03;;;;;;;7.33;4.30;;;;;;;;;;10268119;28;20517;-59
2020/12/14 04:58:00;;;;;;;7.10;3.67;;;;;;;;;;10278408;28;20400;-61
2020/12/14 05:02:58;;;;;;;7.23;4.03;;;;;;;;;;10235067;28;20045;-57
2020/12/14 05:07:56;;;;;;;4.03;2.57;;;;;;;;;;10275907;28;20051;-57
2020/12/14 05:12:53;;;;;;;6.88;3.40;;;;;;;;;;10275994;28;20056;-59
2020/12/14 05:17:52;;;;;;;6.27;3.40;;;;;;;;;;10258046;28;20403;-56
2020/12/14 05:22:56;;;;;;;6.45;4.32;;;;;;;;;;10259907;28;20084;-61
2020/12/14 05:28:19;;;;;;;10.40;4.60;;;;;;;;;;10276455;28;20049;-62
2020/12/14 05:33:21;;;;;;;11.38;4.85;;;;;;;;;;10272702;28;20062;-58
2020/12/14 05:38:23;;;;;;;9.93;4.47;;;;;;;;;;10290735;28;20044;-59
2020/12/14 05:43:22;;;;;;;5.97;4.68;;;;;;;;;;10281104;28;20037;-62
2020/12/14 05:48:19;;;;;;;;;;;;;;;;;;10289037;28;20041;-63
2020/12/14 05:53:20;;;;;;;9.20;4.80;;;;;;;;;;10270329;28;19913;-57
2020/12/14 05:58:18;;;;;;;7.20;3.80;;;;;;;;;;10289942;28;20124;-64
2020/12/14 06:03:15;;;;;;;5.37;4.03;;;;;;;;;;10279378;28;20551;-59
2020/12/14 06:08:31;;;;;;;8.10;4.80;;;;;;;;;;10284442;28;20800;-56
2020/12/14 06:13:29;;;;;;;5.05;3.20;;;;;;;;;;10290070;28;20029;-61
2020/12/14 06:18:31;;;;;;;8.68;4.65;;;;;;;;;;10289992;28;20061;-57
2020/12/14 06:23:30;;;;;;;7.05;3.67;;;;;;;;;;10260583;28;20117;-61
2020/12/14 06:28:27;;;;;;;7.32;3.42;;;;;;;;;;10299126;28;20110;-61
2020/12/14 06:33:38;;;;;;;6.20;3.57;;;;;;;;;;10286662;28;20120;-57
2020/12/14 06:38:36;;;;;;;6.35;3.15;;;;;;;;;;10260776;28;20050;-62
2020/12/14 06:43:34;;;;;;;7.82;4.30;;;;;;;;;;10278340;28;20034;-60
2020/12/14 06:48:35;;;;;;;5.77;3.47;;;;;;;;;;10291341;28;20507;-55
2020/12/14 06:53:38;;;;;;;5.13;3.17;;;;;;;;;;10279084;28;20036;-56
2020/12/14 06:58:35;;;;;;;9.38;3.55;;;;;;;;;;10296061;28;20561;-56
2020/12/14 07:03:36;;;;;;;4.50;3.90;;;;;;;;;;10236732;28;20033;-57
2020/12/14 07:08:37;;;;;;;7.95;3.17;;;;;;;;;;10254598;28;20099;-62
2020/12/14 07:13:34;;;;;;;4.90;2.75;;;;;;;;;;10280407;28;20094;-59
2020/12/14 07:18:33;;;;;;;7.53;3.40;;;;;;;;;;10269470;28;20091;-60
2020/12/14 07:23:30;;;;;;;6.80;3.00;;;;;;;;;;10266379;28;20091;-60
2020/12/14 07:28:35;;;;;;;6.03;3.00;;;;;;;;;;10277410;28;20094;-57
2020/12/14 07:33:32;;;;;;;5.30;2.90;;;;;;;;;;10285957;28;20267;-60
2020/12/14 07:38:29;;;;;;;8.23;2.80;;;;;;;;;;10275132;28;20029;-62
2020/12/14 07:43:27;;;;;;;4.60;2.93;;;;;;;;;;10292543;28;20037;-60
2020/12/14 07:48:24;;;;;;;5.20;2.87;;;;;;;;;;10288027;28;20056;-57
2020/12/14 07:53:21;;;;;;;12.00;2.90;;;;;;;;;;10279495;28;20037;-64
2020/12/14 07:58:19;;;;;;;4.57;3.10;;;;;;;;;;10278039;28;20034;-58
2020/12/14 08:03:17;;;;;;;6.07;3.20;;;;;;;;;;10274401;28;20029;-57
2020/12/14 08:08:14;;;;;;;7.10;3.67;;;;;;;;;;10277786;28;20084;-59
2020/12/14 08:13:13;;;;;;;6.50;3.60;;;;;;;;;;10282747;28;20072;-58
2020/12/14 08:18:11;;;;;;;8.35;3.05;;;;;;;;;;10267098;28;20499;-61
2020/12/14 08:23:16;;;;;;;4.47;3.22;;;;;;;;;;10249645;28;20037;-59
2020/12/14 08:28:14;;;;;;;5.97;3.10;;;;;;;;;;10278336;28;20221;-58
2020/12/14 08:33:16;;;;;;;5.90;3.40;;;;;;;;;;10270958;28;20132;-61
2020/12/14 08:38:15;;;;;;;5.10;3.40;;;;;;;;;;10271202;28;20046;-59
2020/12/14 08:43:14;;;;;;;8.25;3.67;;;;;;;;;;10292097;28;21507;-61
2020/12/14 08:48:11;;;;;;;11.05;3.70;;;;;;;;;;10275731;28;20127;-60
2020/12/14 08:53:08;;;;;;;9.10;3.17;;;;;;;;;;10274729;28;20072;-60
2020/12/14 08:58:07;;;;;;;9.43;3.80;;;;;;;;;;10272208;28;20034;-58
2020/12/14 09:03:04;;;;;;;9.70;5.28;;;;;;;;;;10269563;28;20037;-57
2020/12/14 09:08:15;;;;;;;11.83;4.60;;;;;;;;;;10279556;28;20045;-57
2020/12/14 09:13:12;;;;;;;7.85;4.35;;;;;;;;;;10268035;23;20089;-64
2020/12/14 09:18:10;;;;;;;7.77;4.07;;;;;;;;;;10194134;28;20048;-63
2020/12/14 09:23:16;;;;;;;11.13;4.83;;;;;;;;;;10227111;28;20078;-65
2020/12/14 09:28:13;;;;;;;11.80;3.92;;;;;;;;;;10223845;28;20041;-65
2020/12/14 09:33:10;;;;;;;10.07;3.93;;;;;;;;;;10219463;28;20042;-65
2020/12/14 09:38:08;;;;;;;6.97;4.57;;;;;;;;;;10226441;28;20069;-65
2020/12/14 09:43:05;;;;;;;6.17;3.90;;;;;;;;;;10195630;28;20038;-65
2020/12/14 09:48:03;;;;;;;6.27;3.63;;;;;;;;;;10242324;23;20046;-62
2020/12/14 09:53:00;;;;;;;9.30;4.30;;;;;;;;;;10247266;28;20153;-63
2020/12/14 09:57:58;;;;;;;10.33;4.23;;;;;;;;;;10239473;28;20038;-63
2020/12/14 10:08:02;;;;;;;7.90;4.28;;;;;;;;;;10232284;28;20085;-63
2020/12/14 10:13:01;;;;;;;10.67;4.93;;;;;;;;;;10248498;28;20040;-63
2020/12/14 10:17:58;;;;;;;7.68;4.63;;;;;;;;;;10240339;28;20096;-63
2020/12/14 10:22:56;;;;;;;10.23;4.10;;;;;;;;;;10250651;28;20096;-63
2020/12/14 10:27:53;;;;;;;8.23;4.87;;;;;;;;;;10249835;28;20053;-63
2020/12/14 10:32:51;;;;;;;9.80;3.90;;;;;;;;;;10252636;28;20069;-63
2020/12/14 10:37:48;;;;;;;6.23;2.90;;;;;;;;;;10266874;28;20045;-64
2020/12/14 10:42:46;;;;;;;8.13;3.47;;;;;;;;;;10268014;28;20041;-64
2020/12/14 10:47:43;;;;;;;5.70;3.50;;;;;;;;;;10261942;28;21115;-64
2020/12/14 10:52:41;;;;;;;4.07;2.87;;;;;;;;;;10267946;28;20046;-64
2020/12/14 10:57:38;;;;;;;5.73;3.33;;;;;;;;;;10255054;28;20173;-63
2020/12/14 11:02:38;;;;;;;4.93;3.80;;;;;;;;;;10242107;28;20033;-62
2020/12/14 11:07:36;;;;;;;5.20;2.60;;;;;;;;;;10242104;28;20088;-62
2020/12/14 11:12:34;;;;;;;4.50;2.67;;;;;;;;;;10242445;28;20066;-61
2020/12/14 11:17:31;;;;;;;7.93;3.53;;;;;;;;;;10234806;28;20278;-62
2020/12/14 11:22:29;;;;;;;4.73;2.87;;;;;;;;;;10235670;28;20121;-62
2020/12/14 11:27:26;;;;;;;7.43;3.00;;;;;;;;;;10233555;28;20042;-62
2020/12/14 11:32:23;;;;;;;7.57;3.13;;;;;;;;;;10237951;28;20056;-61
2020/12/14 11:37:21;;;;;;;6.63;3.07;;;;;;;;;;10255417;28;20389;-62
2020/12/14 11:42:18;;;;;;;6.97;3.17;;;;;;;;;;10242920;28;20556;-62
2020/12/14 11:47:16;;;;;;;8.93;3.30;;;;;;;;;;10236025;28;20026;-63
2020/12/14 11:52:13;;;;;;;5.80;3.53;;;;;;;;;;10237263;28;20121;-63
2020/12/14 11:57:11;;;;;;;5.30;2.70;;;;;;;;;;10251598;28;20500;-63
2020/12/14 12:02:08;;;;;;;7.13;3.47;;;;;;;;;;10242881;28;20389;-62
2020/12/14 12:07:05;;;;;;;5.63;3.47;;;;;;;;;;10248931;28;20518;-64
2020/12/14 12:12:03;;;;;;;3.73;2.67;;;;;;;;;;10204023;28;20041;-64
2020/12/14 12:17:01;;;;;;;4.47;2.65;;;;;;;;;;10225103;28;20133;-62
2020/12/14 12:21:59;;;;;;;3.83;2.80;;;;;;;;;;10209001;28;20084;-65
2020/12/14 12:26:56;;;;;;;6.63;2.78;;;;;;;;;;10234615;28;20632;-64
2020/12/14 12:31:56;;;;;;;5.43;3.30;;;;;;;;;;10243973;28;20037;-64
2020/12/14 12:36:55;;;;;;;8.23;3.58;;;;;;;;;;10236293;28;20259;-63
2020/12/14 12:41:53;;;;;;;6.60;4.30;;;;;;;;;;10229363;28;20932;-65
2020/12/14 12:46:50;;;;;;;5.68;3.92;;;;;;;;;;10238076;28;20112;-65
2020/12/14 12:51:49;;;;;;;6.70;4.20;;;;;;;;;;10241137;28;20034;-65
2020/12/14 12:56:46;;;;;;;6.55;4.68;;;;;;;;;;10248883;28;20037;-64
2020/12/14 13:01:44;;;;;;;7.37;4.33;;;;;;;;;;10224578;28;20044;-64
2020/12/14 13:06:42;;;;;;;4.15;3.15;;;;;;;;;;10237974;28;20053;-64
2020/12/14 13:11:41;;;;;;;8.77;4.57;;;;;;;;;;10219798;28;20033;-65
2020/12/14 13:16:39;;;;;;;10.95;5.03;;;;;;;;;;10225995;28;20030;-63
2020/12/14 13:21:37;;;;;;;7.50;3.92;;;;;;;;;;10234620;28;20042;-61
2020/12/14 13:26:35;;;;;;;9.48;5.00;;;;;;;;;;10238441;28;20073;-62
2020/12/14 13:31:33;;;;;;;8.20;5.17;;;;;;;;;;10219446;28;20065;-64
2020/12/14 13:36:30;;;;;;;8.00;4.27;;;;;;;;;;10228824;28;20412;-63
2020/12/14 13:41:28;;;;;;;10.37;4.90;;;;;;;;;;10242703;28;20104;-63
2020/12/14 13:46:25;;;;;;;7.78;3.85;;;;;;;;;;10238613;28;20433;-63
2020/12/14 13:51:24;;;;;;;9.30;5.33;;;;;;;;;;10242401;28;20254;-65
2020/12/14 13:56:22;;;;;;;6.13;5.30;;;;;;;;;;10251977;28;20038;-63
2020/12/14 14:01:19;;;;;;;10.03;5.17;;;;;;;;;;10253016;28;20492;-64
2020/12/14 14:06:17;;;;;;;6.93;4.30;;;;;;;;;;10245577;28;20038;-62
2020/12/14 14:11:14;;;;;;;9.03;4.27;;;;;;;;;;10247505;28;20065;-63
2020/12/14 14:16:12;;;;;;;9.07;4.27;;;;;;;;;;10248341;28;20099;-63
2020/12/14 14:21:10;;;;;;;4.93;3.60;;;;;;;;;;10249002;28;20037;-64
2020/12/14 14:26:08;;;;;;;7.97;4.80;;;;;;;;;;10224251;28;20497;-64
2020/12/14 14:31:07;;;;;;;9.38;5.25;;;;;;;;;;10241935;28;20034;-62
2020/12/14 14:36:04;;;;;;;9.45;4.63;;;;;;;;;;10237777;28;20034;-62
2020/12/14 14:41:02;;;;;;;7.33;5.33;;;;;;;;;;10290932;28;20037;-62
2020/12/14 14:45:59;;;;;;;13.43;5.80;;;;;;;;;;10250472;28;20152;-62
2020/12/14 14:50:57;;;;;;;9.00;5.93;;;;;;;;;;10256426;28;20026;-63
2020/12/14 14:55:54;;;;;;;6.53;4.60;;;;;;;;;;10265719;28;20635;-62
2020/12/14 15:00:52;;;;;;;7.27;5.93;;;;;;;;;;10248766;28;20034;-63
2020/12/14 15:05:49;;;;;;;11.50;8.30;;;;;;;;;;10219772;28;20041;-62
2020/12/14 15:10:47;;;;;;;11.83;5.43;;;;;;;;;;10256462;28;20034;-62
2020/12/14 15:15:44;;;;;;;12.67;5.20;;;;;;;;;;10269268;28;20034;-62
2020/12/14 15:20:42;;;;;;;9.33;5.63;;;;;;;;;;10258648;28;20034;-63
2020/12/14 15:25:40;;;;;;;12.13;6.07;;;;;;;;;;10256049;28;20117;-64
2020/12/14 15:30:38;;;;;;;10.63;7.88;;;;;;;;;;10249757;28;20409;-63
2020/12/14 15:35:35;;;;;;;12.47;6.83;;;;;;;;;;10272606;28;20038;-62
2020/12/14 15:40:32;;;;;;;8.57;5.90;;;;;;;;;;10243466;28;20042;-63
2020/12/14 15:45:30;;;;;;;14.27;6.97;;;;;;;;;;10239516;28;20096;-64
2020/12/14 15:50:27;;;;;;;13.23;8.97;;;;;;;;;;10236921;28;20512;-61
2020/12/14 15:55:25;;;;;;;13.87;8.53;;;;;;;;;;10252917;28;20125;-64
2020/12/14 16:00:22;;;;;;;19.30;7.57;;;;;;;;;;10243276;28;20497;-63
2020/12/14 16:05:20;;;;;;;13.63;7.17;;;;;;;;;;10249092;28;20454;-63
2020/12/14 16:10:17;;;;;;;12.67;6.73;;;;;;;;;;10230775;28;20033;-64
2020/12/14 16:15:15;;;;;;;14.30;9.07;;;;;;;;;;10243711;28;20084;-63
2020/12/14 16:20:12;;;;;;;15.70;8.10;;;;;;;;;;10244996;28;20048;-63
2020/12/14 16:25:10;;;;;;;14.03;8.50;;;;;;;;;;10219811;28;20038;-63
2020/12/14 16:30:09;;;;;;;19.67;10.63;;;;;;;;;;10244882;28;20517;-63
2020/12/14 16:35:08;;;;;;;13.43;7.93;;;;;;;;;;10244557;28;20037;-64
2020/12/14 16:40:05;;;;;;;15.13;8.18;;;;;;;;;;10241895;28;20126;-64
2020/12/14 16:45:03;;;;;;;24.10;12.47;;;;;;;;;;10217849;28;20058;-63
2020/12/14 16:50:02;;;;;;;24.17;12.25;;;;;;;;;;10229630;28;20041;-63
2020/12/14 16:55:00;;;;;;;22.20;13.23;;;;;;;;;;10240456;28;20030;-64
2020/12/14 16:59:57;;;;;;;19.70;10.27;;;;;;;;;;10256100;28;20034;-62
2020/12/14 17:05:00;;;;;;;20.47;11.20;;;;;;;;;;10234611;28;20026;-63
2020/12/14 17:09:58;;;;;;;24.17;11.63;;;;;;;;;;10235162;28;20109;-62
2020/12/14 17:14:55;;;;;;;21.57;11.00;;;;;;;;;;10234427;28;20868;-63
2020/12/14 17:19:53;;;;;;;17.97;9.70;;;;;;;;;;10234303;28;20038;-63
2020/12/14 17:24:51;;;;;;;17.50;8.93;;;;;;;;;;10231358;28;20069;-64
2020/12/14 17:29:48;;;;;;;20.67;10.68;;;;;;;;;;10245491;28;20026;-63
2020/12/14 17:34:46;;;;;;;17.93;9.50;;;;;;;;;;10235544;28;20092;-63
2020/12/14 17:39:45;;;;;;;18.08;9.20;;;;;;;;;;10225241;28;20554;-62
2020/12/14 17:44:42;;;;;;;21.13;11.15;;;;;;;;;;10238919;28;20168;-63
2020/12/14 17:49:39;;;;;;;19.10;10.53;;;;;;;;;;10242919;28;20030;-63
2020/12/14 17:54:37;;;;;;;21.57;11.17;;;;;;;;;;10233075;28;20034;-63
2020/12/14 17:59:37;;;;;;;21.37;11.23;;;;;;;;;;10248398;28;20447;-63
2020/12/14 18:04:35;;;;;;;20.98;10.32;;;;;;;;;;10261831;28;20071;-63
2020/12/14 18:09:33;;;;;;;23.77;10.80;;;;;;;;;;10240498;28;20446;-63
2020/12/14 18:14:31;;;;;;;21.60;10.63;;;;;;;;;;10236922;28;20109;-64
2020/12/14 18:19:28;;;;;;;22.02;12.10;;;;;;;;;;10242755;28;20037;-65
2020/12/14 18:24:26;;;;;;;17.43;11.00;;;;;;;;;;10265723;28;20045;-64
2020/12/14 18:29:23;;;;;;;19.13;10.03;;;;;;;;;;10266270;28;20037;-65
2020/12/14 21:29:09;;;;;;;18.55;8.80;;;;;;;;;;10196074;28;20125;-64
2020/12/14 21:34:10;;;;;;;17.17;10.13;;;;;;;;;;10195380;28;20128;-64
2020/12/14 21:39:07;;;;;;;10.18;6.05;;;;;;;;;;10202498;28;20046;-64
2020/12/14 21:44:05;;;;;;;15.18;6.78;;;;;;;;;;10195626;28;21344;-64
2020/12/14 21:49:03;;;;;;;13.53;8.90;;;;;;;;;;10174546;28;20508;-64
2020/12/14 21:54:01;;;;;;;12.68;6.22;;;;;;;;;;10202509;28;20030;-64
2020/12/14 21:58:58;;;;;;;8.15;5.10;;;;;;;;;;10209811;28;20045;-66
2020/12/14 22:03:55;;;;;;;9.83;5.17;;;;;;;;;;10201630;28;20788;-64
2020/12/14 22:08:53;;;;;;;6.57;3.83;;;;;;;;;;10208580;28;20045;-64
2020/12/14 22:13:50;;;;;;;8.10;4.13;;;;;;;;;;10213241;28;20129;-65
2020/12/14 22:18:48;;;;;;;5.57;3.47;;;;;;;;;;10195660;28;20043;-64
2020/12/14 22:23:46;;;;;;;11.52;5.38;;;;;;;;;;10202776;28;20042;-65
2020/12/14 22:28:44;;;;;;;8.45;4.35;;;;;;;;;;10204242;28;20042;-64
2020/12/14 22:33:42;;;;;;;13.02;5.38;;;;;;;;;;10215681;28;20504;-63
2020/12/14 22:38:40;;;;;;;16.15;11.80;;;;;;;;;;10210191;28;20105;-64
2020/12/14 22:43:38;;;;;;;9.40;6.05;;;;;;;;;;10208901;28;20412;-64
2020/12/14 22:48:36;;;;;;;12.77;9.07;;;;;;;;;;10205027;28;20037;-63
2020/12/14 22:53:33;;;;;;;11.83;8.40;;;;;;;;;;10207755;28;20477;-63
2020/12/14 22:58:31;;;;;;;5.93;4.03;;;;;;;;;;10202908;28;20041;-64
2020/12/14 23:03:28;;;;;;;4.60;2.93;;;;;;;;;;10197410;28;20027;-64
2020/12/14 23:08:25;;;;;;;11.67;8.13;;;;;;;;;;10211459;28;20030;-64
2020/12/14 23:13:23;;;;;;;12.20;7.67;;;;;;;;;;10216924;28;20019;-64
2020/12/14 23:18:20;;;;;;;13.50;9.13;;;;;;;;;;10188240;28;20798;-64
2020/12/14 23:23:17;;;;;;;9.17;7.40;;;;;;;;;;10198838;28;20353;-65
2020/12/14 23:28:15;;;;;;;10.17;6.63;;;;;;;;;;10195946;28;20038;-63
2020/12/14 23:33:12;;;;;;;11.30;7.57;;;;;;;;;;10201571;28;20043;-64
2020/12/14 23:38:10;;;;;;;8.10;6.30;;;;;;;;;;10186012;28;20107;-65
2020/12/14 23:43:07;;;;;;;8.67;6.63;;;;;;;;;;10193502;28;20492;-65
2020/12/14 23:48:05;;;;;;;8.07;4.23;;;;;;;;;;10205885;28;20746;-64
2020/12/14 23:53:03;;;;;;;11.00;7.80;;;;;;;;;;10183027;28;20034;-66
2020/12/14 23:58:00;;;;;;;13.43;8.60;;;;;;;;;;10214141;28;20042;-63
